Time;durP1;ratioP1;P1;durP2;ratioP2;P2;SDS_P1;SDS_P2;PMS_P1;PMS_P2;Temp;Humidity;BMP_temperature;BMP_pressure;BME280_temperature;BME280_humidity;BME280_pressure;Samples;Min_cycle;Max_cycle;Signal;HPM_P1;HPM_P2
2023/01/30 00:01:27;;;;;;;23.80;11.85;;;6.20;99.90;;;;;;5067281;28;20194;-61
2023/01/30 00:03:53;;;;;;;26.98;11.40;;;6.20;99.90;;;;;;5071154;28;20375;-61
2023/01/30 00:06:19;;;;;;;23.83;10.43;;;6.30;99.90;;;;;;5068967;28;20040;-62
2023/01/30 00:08:45;;;;;;;24.50;10.68;;;6.30;99.90;;;;;;5072807;28;20052;-61
2023/01/30 00:11:13;;;;;;;23.70;10.80;;;6.30;99.90;;;;;;5056426;28;20110;-61
2023/01/30 00:13:39;;;;;;;22.58;10.50;;;6.30;99.90;;;;;;5068973;28;20052;-61
2023/01/30 00:16:08;;;;;;;23.55;10.40;;;6.40;99.90;;;;;;5076471;28;20044;-62
2023/01/30 00:18:35;;;;;;;21.92;9.73;;;6.40;99.90;;;;;;5072323;28;20044;-61
2023/01/30 00:21:03;;;;;;;23.00;9.38;;;6.40;99.90;;;;;;5067912;28;20056;-61
2023/01/30 00:23:31;;;;;;;22.35;9.27;;;6.40;99.90;;;;;;5067414;28;20044;-61
2023/01/30 00:25:57;;;;;;;25.08;9.18;;;6.40;99.90;;;;;;5069781;28;20040;-61
2023/01/30 00:28:23;;;;;;;25.05;9.18;;;6.40;99.90;;;;;;5070515;28;20649;-62
2023/01/30 00:30:53;;;;;;;18.20;8.45;;;6.50;99.90;;;;;;5063146;28;20036;-62
2023/01/30 00:33:20;;;;;;;22.20;8.30;;;6.40;99.90;;;;;;5065999;28;20054;-63
2023/01/30 00:35:47;;;;;;;24.73;7.47;;;6.50;99.90;;;;;;5052041;28;20046;-61
2023/01/30 00:38:14;;;;;;;20.83;8.27;;;6.50;99.90;;;;;;5064755;28;20048;-62
2023/01/30 00:40:40;;;;;;;23.35;8.25;;;6.50;99.90;;;;;;5064149;28;20052;-61
2023/01/30 00:48:37;;;;;;;22.27;8.50;;;6.50;99.90;;;;;;5063389;28;20142;-61
2023/01/30 00:51:03;;;;;;;22.23;8.25;;;6.50;99.90;;;;;;5067947;28;20123;-62
2023/01/30 00:53:29;;;;;;;18.83;8.60;;;6.50;99.90;;;;;;5049035;28;20064;-61
2023/01/30 00:55:55;;;;;;;19.52;8.02;;;6.40;99.90;;;;;;5062208;28;20056;-62
2023/01/30 00:58:22;;;;;;;22.52;8.40;;;6.50;99.90;;;;;;5063949;28;20053;-62
2023/01/30 01:00:49;;;;;;;23.55;8.77;;;6.50;99.90;;;;;;5060553;28;20051;-62
2023/01/30 01:03:15;;;;;;;25.95;8.40;;;6.40;99.90;;;;;;5065702;28;20036;-62
2023/01/30 01:05:42;;;;;;;17.38;7.65;;;6.40;99.90;;;;;;5070167;28;20477;-62
2023/01/30 01:08:08;;;;;;;21.67;7.50;;;6.40;99.90;;;;;;5069687;28;20082;-62
2023/01/30 01:10:34;;;;;;;18.75;7.45;;;6.40;99.90;;;;;;5071138;28;20071;-62
2023/01/30 01:13:01;;;;;;;18.58;7.65;;;6.40;99.90;;;;;;5050298;28;20119;-63
2023/01/30 01:15:27;;;;;;;14.30;7.47;;;6.40;99.90;;;;;;5071440;28;20048;-62
2023/01/30 01:17:53;;;;;;;17.48;7.38;;;6.40;99.90;;;;;;5081301;28;20048;-62
2023/01/30 01:20:21;;;;;;;12.93;6.80;;;6.40;99.90;;;;;;5062404;28;20367;-62
2023/01/30 01:22:51;;;;;;;13.95;6.43;;;6.40;99.90;;;;;;5067834;28;20059;-62
2023/01/30 01:25:18;;;;;;;15.88;6.75;;;6.50;99.90;;;;;;5062591;28;21647;-62
2023/01/30 01:27:44;;;;;;;17.45;6.78;;;6.50;99.90;;;;;;5071519;28;20048;-62
2023/01/30 01:30:11;;;;;;;13.77;6.30;;;6.50;99.90;;;;;;5050948;28;20063;-61
2023/01/30 01:32:37;;;;;;;13.30;6.78;;;6.50;99.90;;;;;;5069719;28;20060;-62
2023/01/30 01:35:03;;;;;;;11.32;6.53;;;6.50;99.90;;;;;;5051874;28;20089;-62
2023/01/30 01:37:29;;;;;;;15.55;6.40;;;6.50;99.90;;;;;;5063593;28;20696;-62
2023/01/30 01:42:39;;;;;;;15.05;6.78;;;6.50;99.90;;;;;;5055403;28;20115;-62
2023/01/30 01:45:11;;;;;;;17.10;6.55;;;6.50;99.90;;;;;;5053112;28;20486;-62
2023/01/30 01:47:40;;;;;;;16.33;7.40;;;6.50;99.90;;;;;;5060127;28;20048;-63
2023/01/30 01:50:15;;;;;;;12.50;6.50;;;6.50;99.90;;;;;;5051410;28;20113;-61
2023/01/30 01:52:42;;;;;;;20.38;6.95;;;6.50;99.90;;;;;;5065139;28;20530;-62
2023/01/30 01:55:08;;;;;;;18.42;6.93;;;6.50;99.90;;;;;;5071350;28;20117;-63
2023/01/30 01:57:47;;;;;;;22.25;7.60;;;6.50;99.90;;;;;;5071437;28;20047;-62
2023/01/30 02:00:15;;;;;;;18.95;7.85;;;6.60;99.90;;;;;;5072630;28;20056;-63
2023/01/30 02:02:46;;;;;;;22.38;7.85;;;6.60;99.90;;;;;;5048543;28;20048;-63
2023/01/30 02:05:14;;;;;;;19.35;7.82;;;6.60;99.90;;;;;;5068852;28;20170;-62
2023/01/30 02:07:46;;;;;;;26.85;8.55;;;6.60;99.90;;;;;;5067246;28;20152;-62
2023/01/30 02:10:23;;;;;;;25.45;8.35;;;6.60;99.90;;;;;;5068612;28;20455;-62
2023/01/30 02:12:50;;;;;;;35.80;8.27;;;6.60;99.90;;;;;;5086793;28;20059;-63
2023/01/30 02:15:17;;;;;;;22.65;8.25;;;6.60;99.90;;;;;;5067642;28;20179;-63
2023/01/30 02:17:43;;;;;;;34.88;9.40;;;6.70;99.90;;;;;;5044944;28;20047;-62
2023/01/30 02:20:42;;;;;;;27.98;9.32;;;6.70;99.90;;;;;;5072322;28;20044;-62
2023/01/30 02:23:34;;;;;;;28.73;8.10;;;6.70;99.90;;;;;;5055458;28;20087;-62
2023/01/30 02:26:12;;;;;;;26.00;6.82;;;6.70;99.90;;;;;;5065685;28;20047;-62
2023/01/30 02:28:38;;;;;;;31.75;7.47;;;6.70;99.90;;;;;;5071024;28;20128;-63
2023/01/30 02:31:07;;;;;;;32.33;7.20;;;6.70;99.90;;;;;;5069797;28;20083;-62
2023/01/30 02:33:35;;;;;;;26.42;7.68;;;6.70;99.90;;;;;;5073899;28;20405;-62
2023/01/30 02:36:26;;;;;;;34.97;7.90;;;6.80;99.90;;;;;;5078821;28;20036;-61
2023/01/30 02:39:04;;;;;;;29.13;7.75;;;6.80;99.90;;;;;;5070020;28;20075;-62
2023/01/30 02:41:42;;;;;;;31.48;7.95;;;6.80;99.90;;;;;;5068359;28;20051;-62
2023/01/30 02:44:21;;;;;;;31.42;7.47;;;6.80;99.90;;;;;;5069188;28;20047;-61
2023/01/30 02:47:15;;;;;;;35.10;7.28;;;6.80;99.90;;;;;;5066221;28;20086;-60
2023/01/30 02:49:49;;;;;;;37.70;7.60;;;6.80;99.90;;;;;;5081124;28;20083;-62
2023/01/30 02:52:15;;;;;;;37.22;6.70;;;6.80;99.90;;;;;;5075640;28;20047;-62
2023/01/30 02:54:41;;;;;;;27.30;6.30;;;6.80;99.90;;;;;;5069868;28;20139;-62
2023/01/30 02:57:21;;;;;;;30.80;6.30;;;6.90;99.90;;;;;;5089686;28;20095;-63
2023/01/30 02:59:52;;;;;;;26.67;5.78;;;6.90;99.90;;;;;;5052726;28;20043;-62
2023/01/30 03:02:41;;;;;;;34.80;6.47;;;6.90;99.90;;;;;;5087024;28;20071;-61
2023/01/30 03:05:21;;;;;;;29.45;6.10;;;6.80;99.90;;;;;;5042590;28;20412;-62
2023/01/30 03:08:22;;;;;;;27.10;6.75;;;6.80;99.90;;;;;;5061329;28;20052;-62
2023/01/30 03:11:08;;;;;;;28.23;6.18;;;6.80;99.90;;;;;;4978767;28;20651;-61
2023/01/30 03:14:21;;;;;;;30.85;6.60;;;6.80;99.90;;;;;;5069282;27;20043;-61
2023/01/30 03:16:50;;;;;;;24.00;5.70;;;6.80;99.90;;;;;;5063462;28;20056;-62
2023/01/30 03:19:19;;;;;;;24.85;5.43;;;6.80;99.90;;;;;;5066943;28;20089;-63
2023/01/30 03:21:45;;;;;;;26.67;4.70;;;6.80;99.90;;;;;;5076109;28;20055;-63
2023/01/30 03:24:12;;;;;;;30.38;5.60;;;6.80;99.90;;;;;;5076473;28;20541;-62
2023/01/30 03:26:53;;;;;;;25.55;5.00;;;6.80;99.90;;;;;;5060785;28;20074;-61
2023/01/30 03:29:19;;;;;;;27.95;4.78;;;6.70;99.90;;;;;;5072724;28;20062;-63
2023/01/30 03:31:45;;;;;;;20.65;4.70;;;6.70;99.90;;;;;;5067860;27;20040;-61
2023/01/30 03:34:11;;;;;;;26.25;5.22;;;6.70;99.90;;;;;;5042398;28;20048;-62
2023/01/30 03:36:37;;;;;;;21.50;4.80;;;6.70;99.90;;;;;;5080906;28;20474;-61
2023/01/30 03:39:03;;;;;;;29.75;4.90;;;6.60;99.90;;;;;;5093217;28;20524;-61
2023/01/30 03:41:29;;;;;;;23.30;5.53;;;6.60;99.90;;;;;;5071727;28;20048;-62
2023/01/30 03:43:55;;;;;;;28.45;4.85;;;6.60;99.90;;;;;;5075743;28;20051;-62
2023/01/30 03:46:20;;;;;;;23.25;4.63;;;6.60;99.90;;;;;;5067143;28;20048;-63
2023/01/30 03:48:46;;;;;;;27.83;5.30;;;6.50;99.90;;;;;;5075339;28;20091;-61
2023/01/30 03:51:12;;;;;;;31.15;4.55;;;6.50;99.90;;;;;;5065600;28;20108;-62
2023/01/30 03:53:38;;;;;;;26.42;4.93;;;6.40;99.90;;;;;;5056250;28;20067;-62
2023/01/30 03:56:04;;;;;;;29.70;5.63;;;6.40;99.90;;;;;;5055874;28;20048;-62
2023/01/30 03:58:30;;;;;;;27.02;4.75;;;6.30;99.90;;;;;;5075580;28;20489;-62
2023/01/30 04:00:56;;;;;;;31.25;5.80;;;6.30;99.90;;;;;;5072667;28;20052;-61
2023/01/30 04:03:23;;;;;;;26.15;5.55;;;6.20;99.90;;;;;;5074189;28;20040;-63
2023/01/30 04:05:48;;;;;;;23.83;4.85;;;6.20;99.90;;;;;;5082593;28;20206;-62
2023/01/30 04:08:14;;;;;;;27.58;5.30;;;6.20;99.90;;;;;;5072147;28;20184;-62
2023/01/30 04:10:40;;;;;;;24.63;5.50;;;6.20;99.90;;;;;;5057719;28;20052;-63
2023/01/30 04:13:06;;;;;;;23.45;4.65;;;6.20;99.90;;;;;;5055348;28;20040;-62
2023/01/30 04:15:32;;;;;;;33.22;5.28;;;6.20;99.90;;;;;;5076729;28;20985;-62
2023/01/30 04:17:58;;;;;;;27.98;5.70;;;6.20;99.90;;;;;;5091422;27;20165;-61
2023/01/30 04:20:23;;;;;;;23.02;4.40;;;6.10;99.90;;;;;;5080191;28;20494;-62
2023/01/30 04:22:49;;;;;;;23.30;4.22;;;6.10;99.90;;;;;;5065507;28;20047;-62
2023/01/30 04:25:15;;;;;;;24.40;4.45;;;6.00;99.90;;;;;;5069643;28;21937;-61
2023/01/30 04:27:42;;;;;;;32.03;4.07;;;6.00;99.90;;;;;;5055389;28;20047;-62
2023/01/30 04:30:08;;;;;;;31.92;5.28;;;6.00;99.90;;;;;;5085566;28;20138;-62
2023/01/30 04:32:34;;;;;;;23.88;5.18;;;5.90;99.90;;;;;;5066877;28;20078;-61
2023/01/30 04:35:00;;;;;;;36.72;4.68;;;5.80;99.90;;;;;;5068970;28;20060;-62
2023/01/30 04:37:25;;;;;;;31.90;5.72;;;5.80;99.90;;;;;;5059787;27;20386;-62
2023/01/30 04:39:51;;;;;;;27.27;4.63;;;5.80;99.90;;;;;;5070156;28;20893;-63
2023/01/30 04:42:17;;;;;;;30.83;5.55;;;5.80;99.90;;;;;;5045648;28;20062;-62
2023/01/30 04:44:43;;;;;;;27.20;5.30;;;5.80;99.90;;;;;;5057063;28;20175;-63
2023/01/30 04:47:08;;;;;;;29.63;5.65;;;5.70;99.90;;;;;;5059805;28;20118;-62
2023/01/30 04:49:34;;;;;;;34.28;5.30;;;5.70;99.90;;;;;;5064516;28;20057;-63
2023/01/30 04:52:00;;;;;;;35.50;5.25;;;5.70;99.90;;;;;;5072850;28;20101;-63
2023/01/30 04:54:26;;;;;;;26.25;5.40;;;5.60;99.90;;;;;;5081877;28;20072;-62
2023/01/30 04:56:52;;;;;;;29.88;5.00;;;5.70;99.90;;;;;;5067809;28;20044;-61
2023/01/30 04:59:18;;;;;;;28.52;4.93;;;5.60;99.90;;;;;;5083254;27;20054;-62
2023/01/30 05:01:43;;;;;;;28.00;4.90;;;5.60;99.90;;;;;;5050440;28;20466;-62
2023/01/30 05:04:09;;;;;;;33.47;5.38;;;5.60;99.90;;;;;;5071963;28;20076;-62
2023/01/30 05:06:35;;;;;;;27.90;4.65;;;5.60;99.90;;;;;;5074649;28;20481;-61
2023/01/30 05:09:02;;;;;;;30.13;5.28;;;5.60;99.90;;;;;;5089726;28;20655;-62
2023/01/30 05:11:29;;;;;;;38.05;5.00;;;5.60;99.90;;;;;;5066169;28;20050;-61
2023/01/30 05:13:55;;;;;;;32.00;5.10;;;5.60;99.90;;;;;;5057036;28;20524;-61
2023/01/30 05:16:22;;;;;;;31.80;4.53;;;5.50;99.90;;;;;;5071321;28;20120;-61
2023/01/30 05:18:49;;;;;;;28.58;4.50;;;5.60;99.90;;;;;;5063810;28;20074;-63
2023/01/30 05:21:25;;;;;;;30.55;5.22;;;5.50;99.90;;;;;;5072424;27;20048;-61
2023/01/30 05:23:52;;;;;;;26.90;5.30;;;5.40;99.90;;;;;;5090338;28;20070;-62
2023/01/30 05:26:18;;;;;;;26.75;4.28;;;5.50;99.90;;;;;;5055453;28;20040;-61
2023/01/30 05:28:49;;;;;;;31.73;4.80;;;5.50;99.90;;;;;;5069210;28;22157;-61
2023/01/30 05:31:14;;;;;;;30.77;4.82;;;5.50;99.90;;;;;;5051442;28;20047;-61
2023/01/30 05:33:40;;;;;;;34.53;4.55;;;5.40;99.90;;;;;;5074404;28;20513;-62
2023/01/30 05:36:07;;;;;;;42.97;5.70;;;5.40;99.90;;;;;;5085756;28;20048;-61
2023/01/30 05:38:33;;;;;;;35.70;5.40;;;5.40;99.90;;;;;;5065432;28;20043;-60
2023/01/30 05:41:04;;;;;;;30.92;5.50;;;5.30;99.90;;;;;;5064629;28;20051;-62
2023/01/30 05:43:30;;;;;;;28.70;5.35;;;5.40;99.90;;;;;;5074597;28;21069;-61
2023/01/30 05:45:58;;;;;;;38.50;5.55;;;5.30;99.90;;;;;;5073145;28;20040;-62
2023/01/30 05:48:25;;;;;;;30.30;5.35;;;5.30;99.90;;;;;;5066552;28;20044;-61
2023/01/30 05:50:52;;;;;;;45.25;6.07;;;5.30;99.90;;;;;;5068862;28;20447;-61
2023/01/30 05:53:18;;;;;;;35.70;5.72;;;5.30;99.90;;;;;;5072725;28;20063;-62
2023/01/30 05:55:44;;;;;;;28.27;5.65;;;5.30;99.90;;;;;;5072889;28;20089;-62
2023/01/30 05:58:10;;;;;;;34.88;5.22;;;5.20;99.90;;;;;;5059819;28;20044;-62
2023/01/30 06:00:36;;;;;;;31.13;5.70;;;5.30;99.90;;;;;;5055524;28;20128;-61
2023/01/30 06:03:02;;;;;;;29.67;4.90;;;5.30;99.90;;;;;;5063385;28;20478;-61
2023/01/30 06:05:28;;;;;;;31.33;6.72;;;5.30;99.90;;;;;;5077363;28;20122;-62
2023/01/30 06:07:54;;;;;;;29.60;4.68;;;5.30;99.90;;;;;;5053420;28;20039;-62
2023/01/30 06:10:19;;;;;;;34.33;5.32;;;5.30;99.90;;;;;;5068726;28;21048;-61
2023/01/30 06:12:45;;;;;;;39.75;5.68;;;5.40;99.90;;;;;;5068316;28;20048;-62
2023/01/30 06:15:11;;;;;;;26.98;5.00;;;5.40;99.90;;;;;;5065924;28;20052;-61
2023/01/30 06:17:42;;;;;;;25.55;4.82;;;5.40;99.90;;;;;;5064304;28;20040;-63
2023/01/30 06:20:08;;;;;;;28.52;4.68;;;5.40;99.90;;;;;;5060086;28;20047;-62
2023/01/30 06:22:34;;;;;;;37.83;5.78;;;5.50;99.90;;;;;;5073456;28;20035;-61
2023/01/30 06:25:00;;;;;;;31.40;5.03;;;5.50;99.90;;;;;;5073723;28;20043;-62
2023/01/30 06:27:26;;;;;;;39.92;5.28;;;5.50;99.90;;;;;;5067727;28;20121;-61
2023/01/30 06:29:51;;;;;;;29.85;4.90;;;5.60;99.90;;;;;;5064406;28;20501;-62
2023/01/30 06:32:17;;;;;;;41.92;4.72;;;5.60;99.90;;;;;;5052698;28;20522;-62
2023/01/30 06:34:43;;;;;;;29.05;5.22;;;5.60;99.90;;;;;;5059305;28;20414;-62
2023/01/30 06:37:09;;;;;;;31.60;5.32;;;5.60;99.90;;;;;;5069332;28;20120;-63
2023/01/30 06:39:35;;;;;;;37.42;5.57;;;5.60;99.90;;;;;;5063455;28;20131;-62
2023/01/30 06:42:00;;;;;;;28.90;5.88;;;5.60;99.90;;;;;;5069629;28;20056;-62
2023/01/30 06:44:26;;;;;;;36.35;6.25;;;5.70;99.90;;;;;;5086595;28;20039;-61
2023/01/30 06:46:52;;;;;;;45.83;5.82;;;5.60;99.90;;;;;;5073395;28;20040;-63
2023/01/30 06:49:18;;;;;;;29.77;5.57;;;5.60;99.90;;;;;;5075342;28;20135;-62
2023/01/30 06:51:43;;;;;;;40.88;6.38;;;5.60;99.90;;;;;;5074072;28;20051;-61
2023/01/30 06:54:09;;;;;;;32.55;5.60;;;5.60;99.90;;;;;;5088233;28;20063;-61
2023/01/30 06:56:35;;;;;;;34.83;6.03;;;5.70;99.90;;;;;;5062305;28;20039;-61
2023/01/30 06:59:01;;;;;;;35.05;5.63;;;5.60;99.90;;;;;;5068736;28;20073;-61
2023/01/30 07:01:26;;;;;;;32.47;5.70;;;5.60;99.90;;;;;;5061058;28;20100;-61
2023/01/30 07:03:52;;;;;;;36.33;5.88;;;5.70;99.90;;;;;;5064086;28;20044;-62
2023/01/30 07:06:18;;;;;;;36.03;5.55;;;5.70;99.90;;;;;;5069186;28;20051;-61
2023/01/30 07:08:44;;;;;;;31.20;5.57;;;5.70;99.90;;;;;;5072000;28;20122;-62
2023/01/30 07:11:10;;;;;;;46.60;6.35;;;5.70;99.90;;;;;;5059803;28;20048;-62
2023/01/30 07:13:36;;;;;;;34.72;6.20;;;5.70;99.90;;;;;;5092214;28;20044;-63
2023/01/30 07:16:02;;;;;;;30.48;5.63;;;5.70;99.90;;;;;;5046139;28;20363;-62
2023/01/30 07:18:28;;;;;;;36.05;5.68;;;5.70;99.90;;;;;;5096249;28;20043;-61
2023/01/30 07:20:53;;;;;;;39.35;5.90;;;5.70;99.90;;;;;;5077007;28;20509;-62
2023/01/30 07:23:19;;;;;;;36.22;5.18;;;5.70;99.90;;;;;;5078377;28;20569;-61
2023/01/30 07:25:45;;;;;;;32.40;5.65;;;5.70;99.90;;;;;;5071776;28;20087;-62
2023/01/30 07:28:11;;;;;;;39.50;5.35;;;5.80;99.90;;;;;;5041637;28;20051;-62
2023/01/30 07:30:37;;;;;;;32.25;5.55;;;5.70;99.90;;;;;;5071921;28;20047;-62
2023/01/30 07:33:04;;;;;;;39.78;5.55;;;5.70;99.90;;;;;;5078081;28;20046;-62
2023/01/30 07:35:32;;;;;;;36.40;5.40;;;5.70;99.90;;;;;;5065294;28;20115;-62
2023/01/30 07:37:58;;;;;;;38.97;5.70;;;5.70;99.90;;;;;;5072674;28;20047;-62
2023/01/30 07:40:25;;;;;;;30.85;5.00;;;5.80;99.90;;;;;;5073790;28;20051;-62
2023/01/30 07:42:56;;;;;;;36.95;5.25;;;5.80;99.90;;;;;;5066732;28;20431;-62
2023/01/30 07:45:22;;;;;;;37.83;5.35;;;5.70;99.90;;;;;;5088817;28;20497;-61
2023/01/30 07:47:48;;;;;;;36.97;5.40;;;5.80;99.90;;;;;;5056475;28;20514;-62
2023/01/30 07:50:14;;;;;;;37.25;6.03;;;5.80;99.90;;;;;;5063502;28;20036;-62
2023/01/30 07:52:40;;;;;;;27.52;4.93;;;5.80;99.90;;;;;;5068993;28;20052;-62
2023/01/30 07:55:06;;;;;;;29.05;5.10;;;5.80;99.90;;;;;;5058174;28;20159;-61
2023/01/30 07:57:31;;;;;;;33.03;5.10;;;5.90;99.90;;;;;;5062262;28;20462;-62
2023/01/30 07:59:57;;;;;;;34.42;5.57;;;5.90;99.90;;;;;;5080969;28;20044;-61
2023/01/30 08:02:23;;;;;;;35.65;5.63;;;5.90;99.90;;;;;;5071220;28;20519;-61
2023/01/30 08:04:49;;;;;;;40.00;5.53;;;5.90;99.90;;;;;;5069407;28;20101;-63
2023/01/30 08:07:14;;;;;;;31.05;5.30;;;5.90;99.90;;;;;;5047497;28;20082;-63
2023/01/30 08:09:41;;;;;;;25.23;4.63;;;5.90;99.90;;;;;;5075639;28;20044;-62
2023/01/30 08:12:06;;;;;;;40.05;4.90;;;5.90;99.90;;;;;;5070578;28;20055;-60
2023/01/30 08:14:32;;;;;;;31.25;5.05;;;5.90;99.90;;;;;;5081005;27;20079;-62
2023/01/30 08:16:58;;;;;;;27.17;5.32;;;6.00;99.90;;;;;;5084036;27;21670;-61
2023/01/30 08:19:24;;;;;;;42.00;5.53;;;6.00;99.90;;;;;;5081794;28;20040;-62
2023/01/30 08:21:49;;;;;;;30.23;5.85;;;6.00;99.90;;;;;;5061420;28;20154;-63
2023/01/30 08:24:15;;;;;;;32.17;5.88;;;6.00;99.90;;;;;;5064660;28;20151;-61
2023/01/30 08:26:41;;;;;;;41.35;5.47;;;6.00;99.90;;;;;;5082474;28;20048;-63
2023/01/30 08:29:07;;;;;;;35.03;5.82;;;6.00;99.90;;;;;;5068461;28;20047;-62
2023/01/30 08:31:33;;;;;;;34.05;5.07;;;6.10;99.90;;;;;;5083967;28;20044;-61
2023/01/30 08:33:58;;;;;;;31.40;5.07;;;6.10;99.90;;;;;;5063946;28;20466;-61
2023/01/30 08:36:25;;;;;;;30.40;5.07;;;6.10;99.90;;;;;;5082066;28;20130;-63
2023/01/30 08:38:50;;;;;;;30.10;5.40;;;6.10;99.90;;;;;;5065038;28;20048;-62
2023/01/30 08:41:16;;;;;;;34.53;5.63;;;6.20;99.90;;;;;;5065851;28;20101;-62
2023/01/30 08:43:42;;;;;;;42.88;5.20;;;6.20;99.90;;;;;;5073136;28;20493;-63
2023/01/30 08:46:08;;;;;;;28.42;5.18;;;6.20;99.90;;;;;;5066609;28;20097;-62
2023/01/30 08:48:36;;;;;;;34.88;5.78;;;6.20;99.90;;;;;;5050231;28;20447;-61
2023/01/30 08:51:02;;;;;;;28.67;5.85;;;6.20;99.90;;;;;;5064740;28;20044;-62
2023/01/30 08:53:28;;;;;;;34.20;5.63;;;6.30;99.90;;;;;;5065966;28;20102;-61
2023/01/30 08:55:54;;;;;;;31.95;5.07;;;6.30;99.90;;;;;;5066433;27;20048;-62
2023/01/30 08:58:20;;;;;;;23.70;4.30;;;6.30;99.90;;;;;;5067118;28;20052;-61
2023/01/30 09:00:48;;;;;;;31.50;4.95;;;6.40;99.90;;;;;;5065648;28;20042;-62
2023/01/30 09:03:14;;;;;;;35.30;4.90;;;6.40;99.90;;;;;;5084322;28;20055;-62
2023/01/30 09:05:40;;;;;;;27.77;4.95;;;6.40;99.90;;;;;;5067900;28;20051;-61
2023/01/30 09:08:06;;;;;;;31.60;5.63;;;6.40;99.90;;;;;;5067239;28;20105;-61
2023/01/30 09:10:32;;;;;;;33.22;5.47;;;6.40;99.90;;;;;;5075257;28;20069;-63
2023/01/30 09:12:58;;;;;;;34.65;5.38;;;6.50;99.90;;;;;;5089918;28;20128;-61
2023/01/30 09:15:23;;;;;;;38.05;5.88;;;6.50;99.90;;;;;;5065856;28;20051;-62
2023/01/30 09:17:51;;;;;;;26.13;4.72;;;6.50;99.90;;;;;;5066770;28;20044;-62
2023/01/30 09:20:19;;;;;;;34.80;6.30;;;6.50;99.90;;;;;;5068374;28;20036;-62
2023/01/30 09:22:45;;;;;;;26.92;5.00;;;6.50;99.90;;;;;;5065379;28;20086;-61
2023/01/30 09:25:12;;;;;;;34.72;6.47;;;6.50;99.90;;;;;;5063671;28;20044;-62
2023/01/30 09:27:38;;;;;;;29.90;5.57;;;6.50;99.90;;;;;;5068335;28;20104;-62
2023/01/30 09:30:05;;;;;;;43.83;5.82;;;6.50;99.90;;;;;;5064697;28;20055;-62
2023/01/30 09:32:30;;;;;;;40.45;4.95;;;6.50;99.90;;;;;;5084912;28;20147;-63
2023/01/30 09:34:56;;;;;;;35.20;5.80;;;6.50;99.90;;;;;;5084852;28;20108;-62
2023/01/30 09:37:22;;;;;;;33.55;5.25;;;6.50;99.90;;;;;;5082304;28;20042;-63
2023/01/30 09:39:48;;;;;;;37.40;5.90;;;6.50;99.90;;;;;;5065166;28;20548;-61
2023/01/30 09:42:38;;;;;;;29.52;5.72;;;6.50;99.90;;;;;;5063251;28;20048;-62
2023/01/30 09:45:33;;;;;;;33.58;5.82;;;6.40;99.90;;;;;;5065477;28;20044;-62
2023/01/30 09:48:30;;;;;;;29.00;5.45;;;6.40;99.90;;;;;;5040790;28;20047;-62
2023/01/30 09:51:16;;;;;;;39.95;5.47;;;6.50;99.90;;;;;;5067977;28;20217;-61
2023/01/30 09:54:04;;;;;;;34.72;5.45;;;6.50;99.90;;;;;;5062936;27;20109;-61
2023/01/30 09:56:30;;;;;;;38.55;6.78;;;6.60;99.90;;;;;;5068038;28;20494;-62
2023/01/30 09:58:58;;;;;;;32.47;6.03;;;6.60;99.90;;;;;;5051761;28;20051;-62
2023/01/30 10:01:59;;;;;;;35.90;6.28;;;6.60;99.90;;;;;;5062734;28;20048;-61
2023/01/30 10:04:34;;;;;;;40.95;5.60;;;6.70;99.90;;;;;;5067875;28;20050;-62
2023/01/30 10:07:09;;;;;;;39.10;6.43;;;6.70;99.90;;;;;;5083353;28;20473;-62
2023/01/30 10:09:56;;;;;;;33.15;5.50;;;6.80;99.90;;;;;;5062669;28;20402;-62
2023/01/30 10:12:43;;;;;;;33.53;5.38;;;6.80;99.90;;;;;;5063022;28;20069;-62
2023/01/30 10:15:48;;;;;;;35.50;6.07;;;6.90;99.90;;;;;;5064864;28;20079;-61
2023/01/30 10:18:52;;;;;;;32.70;5.97;;;7.00;99.90;;;;;;5034023;28;20507;-61
2023/01/30 10:21:24;;;;;;;43.38;6.05;;;7.10;99.90;;;;;;5064922;28;20163;-62
2023/01/30 10:24:20;;;;;;;41.00;5.82;;;7.10;99.90;;;;;;5066394;28;20048;-62
2023/01/30 10:26:47;;;;;;;17.20;3.10;;;7.10;99.90;;;;;;5074937;28;20413;-63
2023/01/30 10:29:27;;;;;;;17.27;2.30;;;6.90;99.90;;;;;;5049745;28;20108;-62
2023/01/30 10:31:56;;;;;;;9.95;2.17;;;6.80;99.90;;;;;;5066998;28;20483;-63
2023/01/30 10:34:28;;;;;;;10.00;2.10;;;6.60;99.90;;;;;;5062370;28;20527;-63
2023/01/30 10:37:02;;;;;;;7.53;1.77;;;6.40;99.90;;;;;;5082331;28;20375;-61
2023/01/30 10:40:04;;;;;;;9.48;1.73;;;6.20;99.90;;;;;;5053516;28;20052;-62
2023/01/30 10:43:01;;;;;;;5.38;1.30;;;6.10;99.90;;;;;;5062279;28;20087;-61
2023/01/30 10:46:03;;;;;;;7.20;1.02;;;5.90;99.90;;;;;;5064129;28;20044;-62
2023/01/30 10:48:44;;;;;;;8.13;1.30;;;5.90;99.90;;;;;;5054700;28;20069;-61
2023/01/30 10:51:38;;;;;;;10.50;2.00;;;6.10;99.90;;;;;;5085371;28;20059;-62
2023/01/30 10:54:19;;;;;;;19.38;2.67;;;6.30;99.90;;;;;;5037484;28;20053;-62
2023/01/30 10:57:02;;;;;;;11.73;2.58;;;6.40;99.90;;;;;;5042995;28;20044;-61
2023/01/30 10:59:53;;;;;;;13.57;2.42;;;6.60;99.90;;;;;;5042578;28;20483;-62
2023/01/30 11:02:58;;;;;;;19.20;2.65;;;6.80;99.90;;;;;;5038824;28;20072;-62
2023/01/30 11:05:28;;;;;;;18.65;3.35;;;6.90;99.90;;;;;;5042472;28;20055;-62
2023/01/30 11:07:54;;;;;;;17.52;3.17;;;7.00;99.90;;;;;;5050370;28;20053;-61
2023/01/30 11:10:26;;;;;;;21.48;3.40;;;7.20;99.90;;;;;;5039028;28;20106;-63
2023/01/30 11:13:13;;;;;;;20.58;3.60;;;7.30;99.90;;;;;;5040481;28;20083;-61
2023/01/30 11:15:40;;;;;;;23.00;4.07;;;7.30;99.90;;;;;;5043387;28;20053;-62
2023/01/30 11:18:07;;;;;;;29.45;4.32;;;7.40;99.90;;;;;;5038751;28;20041;-62
2023/01/30 11:20:40;;;;;;;20.55;3.50;;;7.50;99.90;;;;;;5041521;28;20407;-63
2023/01/30 11:23:20;;;;;;;24.33;3.92;;;7.50;99.90;;;;;;5042223;28;20044;-62
2023/01/30 11:25:49;;;;;;;23.08;4.28;;;7.50;99.90;;;;;;5041209;28;20127;-62
2023/01/30 11:28:18;;;;;;;24.98;4.28;;;7.60;99.90;;;;;;5041517;28;20044;-63
2023/01/30 11:30:54;;;;;;;18.92;3.38;;;7.70;99.90;;;;;;5040211;28;20139;-61
2023/01/30 11:33:23;;;;;;;24.90;3.53;;;7.90;99.90;;;;;;5039376;28;20075;-62
2023/01/30 11:35:58;;;;;;;20.90;3.70;;;8.00;99.90;;;;;;5044481;28;20106;-61
2023/01/30 11:38:25;;;;;;;16.25;3.33;;;8.00;99.90;;;;;;5042175;28;20044;-63
2023/01/30 11:41:10;;;;;;;22.20;4.40;;;8.00;99.90;;;;;;5045977;28;20114;-63
2023/01/30 11:43:38;;;;;;;19.73;3.42;;;7.90;99.90;;;;;;5043455;28;20124;-62
2023/01/30 11:46:10;;;;;;;16.77;2.63;;;7.90;99.90;;;;;;5043850;28;20044;-63
2023/01/30 11:48:53;;;;;;;25.40;3.28;;;7.80;99.90;;;;;;5048971;28;20125;-63
2023/01/30 11:51:22;;;;;;;20.50;4.13;;;7.70;99.90;;;;;;5043831;28;20045;-61
2023/01/30 11:53:55;;;;;;;27.05;3.63;;;7.70;99.90;;;;;;5046665;28;20067;-63
2023/01/30 11:56:20;;;;;;;24.15;3.28;;;7.70;99.90;;;;;;5047205;28;20037;-61
2023/01/30 11:58:57;;;;;;;20.08;2.95;;;7.60;99.90;;;;;;5040889;28;20129;-62
2023/01/30 12:01:29;;;;;;;21.08;3.28;;;7.70;99.90;;;;;;5038690;28;20102;-62
2023/01/30 12:03:56;;;;;;;21.85;4.25;;;7.70;99.90;;;;;;5041699;28;20075;-62
2023/01/30 12:06:31;;;;;;;26.23;3.72;;;7.70;99.90;;;;;;5040577;28;20040;-61
2023/01/30 12:08:58;;;;;;;24.88;4.60;;;7.70;99.90;;;;;;5045070;28;20122;-62
2023/01/30 12:11:28;;;;;;;23.58;4.43;;;7.60;99.90;;;;;;5038922;28;20048;-61
2023/01/30 12:14:18;;;;;;;30.80;4.72;;;7.60;99.90;;;;;;5029583;28;20126;-61
2023/01/30 12:16:50;;;;;;;30.77;4.38;;;7.60;99.90;;;;;;5016674;28;20085;-61
2023/01/30 12:19:25;;;;;;;31.77;5.00;;;7.60;99.90;;;;;;5034528;28;20051;-62
2023/01/30 12:22:27;;;;;;;26.48;4.00;;;7.60;99.90;;;;;;5041544;28;20102;-62
2023/01/30 12:25:08;;;;;;;26.42;5.18;;;7.60;99.90;;;;;;5032887;28;20059;-63
2023/01/30 12:27:55;;;;;;;26.92;5.60;;;7.60;99.90;;;;;;5042164;28;20418;-65
2023/01/30 12:30:48;;;;;;;38.40;5.40;;;7.70;99.90;;;;;;5041799;28;20123;-62
2023/01/30 12:33:15;;;;;;;41.72;6.63;;;7.70;99.90;;;;;;5037718;28;20130;-62
2023/01/30 12:36:13;;;;;;;32.08;4.70;;;7.60;99.90;;;;;;5027906;28;20048;-62
2023/01/30 12:38:55;;;;;;;27.23;5.00;;;7.60;99.90;;;;;;5042989;28;20047;-62
2023/01/30 12:41:34;;;;;;;29.00;5.47;;;7.70;99.90;;;;;;5033830;28;20054;-62
2023/01/30 12:44:15;;;;;;;32.38;4.63;;;7.70;99.90;;;;;;5040704;28;20584;-62
2023/01/30 12:47:12;;;;;;;34.75;5.28;;;7.60;99.90;;;;;;5039904;28;20154;-63
2023/01/30 12:49:52;;;;;;;30.83;5.35;;;7.60;99.90;;;;;;5040953;28;20060;-62
2023/01/30 12:52:32;;;;;;;37.47;5.90;;;7.60;99.90;;;;;;5025152;28;20043;-61
2023/01/30 12:55:17;;;;;;;24.60;4.18;;;7.50;99.90;;;;;;5047620;28;20103;-63
2023/01/30 12:58:19;;;;;;;27.95;4.50;;;7.60;99.90;;;;;;5043247;28;20071;-62
2023/01/30 13:01:03;;;;;;;28.88;4.32;;;7.60;99.90;;;;;;5046842;28;20084;-63
2023/01/30 13:03:52;;;;;;;30.42;4.93;;;7.60;99.90;;;;;;5042512;28;20053;-62
2023/01/30 13:06:46;;;;;;;29.67;4.88;;;7.70;99.90;;;;;;5043083;28;20495;-62
2023/01/30 13:09:49;;;;;;;31.05;4.75;;;7.70;99.90;;;;;;5023763;28;20059;-61
2023/01/30 13:12:33;;;;;;;;;;;7.70;99.90;;;;;;5040716;28;20048;-62
2023/01/30 13:15:07;;;;;;;28.13;4.90;;;7.70;99.90;;;;;;5039835;28;19924;-61
2023/01/30 13:17:59;;;;;;;30.05;5.20;;;7.70;99.90;;;;;;5043370;28;20044;-62